aviador You're here:

KEUG Decoded Metar

EUGENE in OR, USA
Report Time2017-12-15 22:54:00
UTC Time2017-12-15 23:42:35
Flight Rules mvfr MVFR
Wind170° at 03 kt
W.Decomp.*RWY 16: 3.0 kt HW 0.3 kt LCW
W.Rank170° ranks 7
Current wind is below 170° avg. (6.3)
Visibility9999 m
Phenomena:N/A
Clouds:Scattered 015 Hf
Broken 025 Hf
Overcast 035 Hf
Expected CloudBase > 400 ft AGL from Temp-Dew spread
Ceiling2,500 ft
Temp04°C (ISA -10)
Dew Point03°C (93% RH)
AAT1.4°C
QNH1025 hPa
Density Alt-1,171 ft
Elevation374 ft
Report Wrong Elevation
Raw Report
KEUG 152254Z 17003KT 10SM SCT015 BKN025 OVC035 04/03 A3028 RMK AO2
SLP258 T00390028=

Extra information for KEUG:More info

Metar Taf Metar & Taf Last 4 Metars F.Rules Stats Wind Profile Meteogram Temp Stats Airport Information Weather charts Add Link Nearby VenuesMetar ALERT Operation Metar Decoded Social comments

AIRNAV info for KEUG